sensor_id;sensor_type;location;lat;lon;timestamp;temperature;humidity
33067;DHT22;19428;49.024;8.366;2023-08-06T00:02:20;16.90;99.90
33067;DHT22;19428;49.024;8.366;2023-08-06T00:04:46;16.90;99.90
33067;DHT22;19428;49.024;8.366;2023-08-06T00:07:11;16.90;99.90
33067;DHT22;19428;49.024;8.366;2023-08-06T00:09:37;16.90;99.90
33067;DHT22;19428;49.024;8.366;2023-08-06T00:12:02;16.80;99.90
33067;DHT22;19428;49.024;8.366;2023-08-06T00:14:28;16.70;99.90
33067;DHT22;19428;49.024;8.366;2023-08-06T00:16:54;16.80;99.90
33067;DHT22;19428;49.024;8.366;2023-08-06T00:19:20;16.70;99.90
33067;DHT22;19428;49.024;8.366;2023-08-06T00:21:46;16.70;99.90
33067;DHT22;19428;49.024;8.366;2023-08-06T00:24:11;16.60;99.90
33067;DHT22;19428;49.024;8.366;2023-08-06T00:26:37;16.60;99.90
33067;DHT22;19428;49.024;8.366;2023-08-06T00:29:02;16.60;99.90
33067;DHT22;19428;49.024;8.366;2023-08-06T00:31:28;16.50;99.90
33067;DHT22;19428;49.024;8.366;2023-08-06T00:33:54;16.40;99.90
33067;DHT22;19428;49.024;8.366;2023-08-06T00:36:19;16.40;99.90
33067;DHT22;19428;49.024;8.366;2023-08-06T00:38:45;16.50;99.90
33067;DHT22;19428;49.024;8.366;2023-08-06T00:41:10;16.50;99.90
33067;DHT22;19428;49.024;8.366;2023-08-06T00:43:36;16.50;99.90
33067;DHT22;19428;49.024;8.366;2023-08-06T00:46:02;16.50;99.90
33067;DHT22;19428;49.024;8.366;2023-08-06T00:48:27;16.50;99.90
33067;DHT22;19428;49.024;8.366;2023-08-06T00:50:53;16.50;99.90
33067;DHT22;19428;49.024;8.366;2023-08-06T00:53:19;16.40;99.90
33067;DHT22;19428;49.024;8.366;2023-08-06T00:55:45;16.40;99.90
33067;DHT22;19428;49.024;8.366;2023-08-06T00:58:11;16.40;99.90
33067;DHT22;19428;49.024;8.366;2023-08-06T01:00:38;16.30;99.90
33067;DHT22;19428;49.024;8.366;2023-08-06T01:03:04;16.30;99.90
33067;DHT22;19428;49.024;8.366;2023-08-06T01:05:29;16.30;99.90
33067;DHT22;19428;49.024;8.366;2023-08-06T01:08:15;16.30;99.90
33067;DHT22;19428;49.024;8.366;2023-08-06T01:11:04;16.30;99.90
33067;DHT22;19428;49.024;8.366;2023-08-06T01:13:45;16.40;99.90
33067;DHT22;19428;49.024;8.366;2023-08-06T01:16:18;16.40;99.90
33067;DHT22;19428;49.024;8.366;2023-08-06T01:18:46;16.40;99.90
33067;DHT22;19428;49.024;8.366;2023-08-06T01:21:17;16.40;99.90
33067;DHT22;19428;49.024;8.366;2023-08-06T01:23:43;16.40;99.90
33067;DHT22;19428;49.024;8.366;2023-08-06T01:31:31;16.60;99.90
33067;DHT22;19428;49.024;8.366;2023-08-06T01:33:59;16.60;99.90
33067;DHT22;19428;49.024;8.366;2023-08-06T01:36:27;16.60;99.90
33067;DHT22;19428;49.024;8.366;2023-08-06T01:38:53;16.60;99.90
33067;DHT22;19428;49.024;8.366;2023-08-06T01:41:19;16.50;99.90
33067;DHT22;19428;49.024;8.366;2023-08-06T01:43:45;16.50;99.90
33067;DHT22;19428;49.024;8.366;2023-08-06T01:46:10;16.60;99.90
33067;DHT22;19428;49.024;8.366;2023-08-06T01:48:36;16.70;99.90
33067;DHT22;19428;49.024;8.366;2023-08-06T01:51:04;16.90;99.90
33067;DHT22;19428;49.024;8.366;2023-08-06T01:53:30;16.90;99.90
33067;DHT22;19428;49.024;8.366;2023-08-06T01:55:57;16.90;99.90
33067;DHT22;19428;49.024;8.366;2023-08-06T01:58:23;16.80;99.90
33067;DHT22;19428;49.024;8.366;2023-08-06T02:00:48;16.80;99.90
33067;DHT22;19428;49.024;8.366;2023-08-06T02:03:14;16.80;99.90
33067;DHT22;19428;49.024;8.366;2023-08-06T02:05:40;16.80;99.90
33067;DHT22;19428;49.024;8.366;2023-08-06T02:08:05;16.80;99.90
33067;DHT22;19428;49.024;8.366;2023-08-06T02:10:31;16.80;99.90
33067;DHT22;19428;49.024;8.366;2023-08-06T02:12:56;16.80;99.90
33067;DHT22;19428;49.024;8.366;2023-08-06T02:15:22;16.70;99.90
33067;DHT22;19428;49.024;8.366;2023-08-06T02:17:47;16.60;99.90
33067;DHT22;19428;49.024;8.366;2023-08-06T02:20:13;16.60;99.90
33067;DHT22;19428;49.024;8.366;2023-08-06T02:22:39;16.70;99.90
33067;DHT22;19428;49.024;8.366;2023-08-06T02:25:04;16.60;99.90
33067;DHT22;19428;49.024;8.366;2023-08-06T02:27:30;16.70;99.90
33067;DHT22;19428;49.024;8.366;2023-08-06T02:29:56;16.60;99.90
33067;DHT22;19428;49.024;8.366;2023-08-06T02:32:21;16.50;99.90
33067;DHT22;19428;49.024;8.366;2023-08-06T02:34:47;16.60;99.90
33067;DHT22;19428;49.024;8.366;2023-08-06T02:37:12;16.60;99.90
33067;DHT22;19428;49.024;8.366;2023-08-06T02:39:38;16.50;99.90
33067;DHT22;19428;49.024;8.366;2023-08-06T02:42:06;16.60;99.90
33067;DHT22;19428;49.024;8.366;2023-08-06T02:44:33;16.60;99.90
33067;DHT22;19428;49.024;8.366;2023-08-06T02:46:59;16.50;99.90
33067;DHT22;19428;49.024;8.366;2023-08-06T02:49:24;16.40;99.90
33067;DHT22;19428;49.024;8.366;2023-08-06T02:51:50;16.40;99.90
33067;DHT22;19428;49.024;8.366;2023-08-06T02:54:15;16.30;99.90
33067;DHT22;19428;49.024;8.366;2023-08-06T02:56:45;16.20;99.90
33067;DHT22;19428;49.024;8.366;2023-08-06T02:59:16;16.20;99.90
33067;DHT22;19428;49.024;8.366;2023-08-06T03:01:41;16.20;99.90
33067;DHT22;19428;49.024;8.366;2023-08-06T03:04:07;16.00;99.90
33067;DHT22;19428;49.024;8.366;2023-08-06T03:06:33;16.00;99.90
33067;DHT22;19428;49.024;8.366;2023-08-06T03:08:58;15.90;99.90
33067;DHT22;19428;49.024;8.366;2023-08-06T03:11:24;15.90;99.90
33067;DHT22;19428;49.024;8.366;2023-08-06T03:13:49;15.90;99.90
33067;DHT22;19428;49.024;8.366;2023-08-06T03:16:15;15.80;99.90
33067;DHT22;19428;49.024;8.366;2023-08-06T03:18:40;15.80;99.90
33067;DHT22;19428;49.024;8.366;2023-08-06T03:21:06;15.70;99.90
33067;DHT22;19428;49.024;8.366;2023-08-06T03:23:31;15.70;99.90
33067;DHT22;19428;49.024;8.366;2023-08-06T03:26:03;15.60;99.90
33067;DHT22;19428;49.024;8.366;2023-08-06T03:28:29;15.60;99.90
33067;DHT22;19428;49.024;8.366;2023-08-06T03:31:02;15.60;99.90
33067;DHT22;19428;49.024;8.366;2023-08-06T03:33:28;15.60;99.90
33067;DHT22;19428;49.024;8.366;2023-08-06T03:35:54;15.60;99.90
33067;DHT22;19428;49.024;8.366;2023-08-06T03:38:19;15.60;99.90
33067;DHT22;19428;49.024;8.366;2023-08-06T03:40:46;15.60;99.90
33067;DHT22;19428;49.024;8.366;2023-08-06T03:43:11;15.60;99.90
33067;DHT22;19428;49.024;8.366;2023-08-06T03:45:37;15.60;99.90
33067;DHT22;19428;49.024;8.366;2023-08-06T03:48:02;15.60;99.90
33067;DHT22;19428;49.024;8.366;2023-08-06T03:50:28;15.50;99.90
33067;DHT22;19428;49.024;8.366;2023-08-06T03:52:54;15.50;99.90
33067;DHT22;19428;49.024;8.366;2023-08-06T03:55:19;15.50;99.90
33067;DHT22;19428;49.024;8.366;2023-08-06T03:57:45;15.50;99.90
33067;DHT22;19428;49.024;8.366;2023-08-06T04:00:10;15.50;99.90
33067;DHT22;19428;49.024;8.366;2023-08-06T04:02:36;15.40;99.90
33067;DHT22;19428;49.024;8.366;2023-08-06T04:05:02;15.40;99.90
33067;DHT22;19428;49.024;8.366;2023-08-06T04:07:28;15.40;99.90
33067;DHT22;19428;49.024;8.366;2023-08-06T04:09:56;15.40;99.90
33067;DHT22;19428;49.024;8.366;2023-08-06T04:12:22;15.40;99.90
33067;DHT22;19428;49.024;8.366;2023-08-06T04:14:48;15.40;99.90
33067;DHT22;19428;49.024;8.366;2023-08-06T04:17:13;15.40;99.90
33067;DHT22;19428;49.024;8.366;2023-08-06T04:19:39;15.40;99.90
33067;DHT22;19428;49.024;8.366;2023-08-06T04:22:05;15.40;99.90
33067;DHT22;19428;49.024;8.366;2023-08-06T04:24:30;15.30;99.90
33067;DHT22;19428;49.024;8.366;2023-08-06T04:26:56;15.40;99.90
33067;DHT22;19428;49.024;8.366;2023-08-06T04:29:21;15.30;99.90
33067;DHT22;19428;49.024;8.366;2023-08-06T04:31:47;15.30;99.90
33067;DHT22;19428;49.024;8.366;2023-08-06T04:34:12;15.30;99.90
33067;DHT22;19428;49.024;8.366;2023-08-06T04:36:38;15.30;99.90
33067;DHT22;19428;49.024;8.366;2023-08-06T04:39:04;15.30;99.90
33067;DHT22;19428;49.024;8.366;2023-08-06T04:41:29;15.30;99.90
33067;DHT22;19428;49.024;8.366;2023-08-06T04:43:56;15.40;99.90
33067;DHT22;19428;49.024;8.366;2023-08-06T04:46:22;15.30;99.90
33067;DHT22;19428;49.024;8.366;2023-08-06T04:48:47;15.30;99.90
33067;DHT22;19428;49.024;8.366;2023-08-06T04:51:13;15.40;99.90
33067;DHT22;19428;49.024;8.366;2023-08-06T04:53:39;15.30;99.90
33067;DHT22;19428;49.024;8.366;2023-08-06T04:56:06;15.40;99.90
33067;DHT22;19428;49.024;8.366;2023-08-06T04:58:32;15.40;99.90
33067;DHT22;19428;49.024;8.366;2023-08-06T05:00:58;15.40;99.90
33067;DHT22;19428;49.024;8.366;2023-08-06T05:03:23;15.40;99.90
33067;DHT22;19428;49.024;8.366;2023-08-06T05:05:49;15.50;99.90
33067;DHT22;19428;49.024;8.366;2023-08-06T05:08:15;15.50;99.90
33067;DHT22;19428;49.024;8.366;2023-08-06T05:10:43;15.50;99.90
33067;DHT22;19428;49.024;8.366;2023-08-06T05:13:09;15.50;99.90
33067;DHT22;19428;49.024;8.366;2023-08-06T05:15:35;15.50;99.90
33067;DHT22;19428;49.024;8.366;2023-08-06T05:18:00;15.50;99.90
33067;DHT22;19428;49.024;8.366;2023-08-06T05:20:26;15.40;99.90
33067;DHT22;19428;49.024;8.366;2023-08-06T05:22:51;15.30;99.90
33067;DHT22;19428;49.024;8.366;2023-08-06T05:25:17;15.40;99.90
33067;DHT22;19428;49.024;8.366;2023-08-06T05:27:42;15.40;99.90
33067;DHT22;19428;49.024;8.366;2023-08-06T05:30:09;15.30;99.90
33067;DHT22;19428;49.024;8.366;2023-08-06T05:32:34;15.30;99.90
33067;DHT22;19428;49.024;8.366;2023-08-06T05:35:00;15.20;99.90
33067;DHT22;19428;49.024;8.366;2023-08-06T05:37:25;15.20;99.90
33067;DHT22;19428;49.024;8.366;2023-08-06T05:39:51;15.00;99.90
33067;DHT22;19428;49.024;8.366;2023-08-06T05:42:16;14.90;99.90
33067;DHT22;19428;49.024;8.366;2023-08-06T05:44:42;14.90;99.90
33067;DHT22;19428;49.024;8.366;2023-08-06T05:47:08;14.90;99.90
33067;DHT22;19428;49.024;8.366;2023-08-06T05:49:33;15.00;99.90
33067;DHT22;19428;49.024;8.366;2023-08-06T05:51:59;14.90;99.90
33067;DHT22;19428;49.024;8.366;2023-08-06T05:54:25;14.90;99.90
33067;DHT22;19428;49.024;8.366;2023-08-06T05:56:50;15.00;99.90
33067;DHT22;19428;49.024;8.366;2023-08-06T05:59:16;15.00;99.90
33067;DHT22;19428;49.024;8.366;2023-08-06T06:01:41;15.00;99.90
33067;DHT22;19428;49.024;8.366;2023-08-06T06:04:07;15.00;99.90
33067;DHT22;19428;49.024;8.366;2023-08-06T06:06:32;15.00;99.90
33067;DHT22;19428;49.024;8.366;2023-08-06T06:08:58;15.00;99.90
33067;DHT22;19428;49.024;8.366;2023-08-06T06:11:23;14.90;99.90
33067;DHT22;19428;49.024;8.366;2023-08-06T06:13:50;15.00;99.90
33067;DHT22;19428;49.024;8.366;2023-08-06T06:16:16;15.00;99.90
33067;DHT22;19428;49.024;8.366;2023-08-06T06:18:42;15.00;99.90
33067;DHT22;19428;49.024;8.366;2023-08-06T06:21:07;15.00;99.90
33067;DHT22;19428;49.024;8.366;2023-08-06T06:23:33;15.00;99.90
33067;DHT22;19428;49.024;8.366;2023-08-06T06:25:59;15.00;99.90
33067;DHT22;19428;49.024;8.366;2023-08-06T06:28:24;15.00;99.90
33067;DHT22;19428;49.024;8.366;2023-08-06T06:30:51;15.00;99.90
33067;DHT22;19428;49.024;8.366;2023-08-06T06:33:17;15.00;99.90
33067;DHT22;19428;49.024;8.366;2023-08-06T06:35:42;15.00;99.90
33067;DHT22;19428;49.024;8.366;2023-08-06T06:38:08;14.90;99.90
33067;DHT22;19428;49.024;8.366;2023-08-06T06:40:33;14.90;99.90
33067;DHT22;19428;49.024;8.366;2023-08-06T06:42:59;14.90;99.90
33067;DHT22;19428;49.024;8.366;2023-08-06T06:45:24;14.90;99.90
33067;DHT22;19428;49.024;8.366;2023-08-06T06:47:50;14.90;99.90
33067;DHT22;19428;49.024;8.366;2023-08-06T06:50:16;14.80;99.90
33067;DHT22;19428;49.024;8.366;2023-08-06T06:52:41;14.90;99.90
33067;DHT22;19428;49.024;8.366;2023-08-06T06:55:07;14.90;99.90
33067;DHT22;19428;49.024;8.366;2023-08-06T06:57:33;14.80;99.90
33067;DHT22;19428;49.024;8.366;2023-08-06T06:59:58;14.80;99.90
33067;DHT22;19428;49.024;8.366;2023-08-06T07:02:24;14.80;99.90
33067;DHT22;19428;49.024;8.366;2023-08-06T07:04:50;14.80;99.90
33067;DHT22;19428;49.024;8.366;2023-08-06T07:07:15;14.70;99.90
33067;DHT22;19428;49.024;8.366;2023-08-06T07:09:41;14.80;99.90
33067;DHT22;19428;49.024;8.366;2023-08-06T07:12:07;14.90;99.90
33067;DHT22;19428;49.024;8.366;2023-08-06T07:14:32;15.00;99.90
33067;DHT22;19428;49.024;8.366;2023-08-06T07:16:58;15.00;99.90
33067;DHT22;19428;49.024;8.366;2023-08-06T07:19:23;15.00;99.90
33067;DHT22;19428;49.024;8.366;2023-08-06T07:21:49;14.90;99.90
33067;DHT22;19428;49.024;8.366;2023-08-06T07:24:14;15.00;99.90
33067;DHT22;19428;49.024;8.366;2023-08-06T07:26:40;15.10;99.90
33067;DHT22;19428;49.024;8.366;2023-08-06T07:29:06;15.10;99.90
33067;DHT22;19428;49.024;8.366;2023-08-06T07:31:31;15.20;99.90
33067;DHT22;19428;49.024;8.366;2023-08-06T07:33:57;15.30;99.90
33067;DHT22;19428;49.024;8.366;2023-08-06T07:36:22;15.10;99.90
33067;DHT22;19428;49.024;8.366;2023-08-06T07:38:48;15.10;99.90
33067;DHT22;19428;49.024;8.366;2023-08-06T07:41:16;15.00;99.90
33067;DHT22;19428;49.024;8.366;2023-08-06T07:43:42;15.00;99.90
33067;DHT22;19428;49.024;8.366;2023-08-06T07:46:11;15.10;99.90
33067;DHT22;19428;49.024;8.366;2023-08-06T07:48:39;15.00;99.90
33067;DHT22;19428;49.024;8.366;2023-08-06T07:51:04;15.10;99.90
33067;DHT22;19428;49.024;8.366;2023-08-06T07:53:30;15.00;99.90
33067;DHT22;19428;49.024;8.366;2023-08-06T07:55:56;15.00;99.90
33067;DHT22;19428;49.024;8.366;2023-08-06T07:58:23;14.90;99.90
33067;DHT22;19428;49.024;8.366;2023-08-06T08:00:49;15.00;99.90
33067;DHT22;19428;49.024;8.366;2023-08-06T08:03:16;15.00;99.90
33067;DHT22;19428;49.024;8.366;2023-08-06T08:05:45;15.00;99.90
33067;DHT22;19428;49.024;8.366;2023-08-06T08:08:10;14.90;99.90
33067;DHT22;19428;49.024;8.366;2023-08-06T08:10:36;14.90;99.90
33067;DHT22;19428;49.024;8.366;2023-08-06T08:13:04;14.80;99.90
33067;DHT22;19428;49.024;8.366;2023-08-06T08:15:31;14.70;99.90
33067;DHT22;19428;49.024;8.366;2023-08-06T08:17:57;14.70;99.90
33067;DHT22;19428;49.024;8.366;2023-08-06T08:20:23;14.70;99.90
33067;DHT22;19428;49.024;8.366;2023-08-06T08:22:49;14.70;99.90
33067;DHT22;19428;49.024;8.366;2023-08-06T08:25:15;14.80;99.90
33067;DHT22;19428;49.024;8.366;2023-08-06T08:27:41;14.70;99.90
33067;DHT22;19428;49.024;8.366;2023-08-06T08:30:07;14.80;99.90
33067;DHT22;19428;49.024;8.366;2023-08-06T08:32:32;15.00;99.90
33067;DHT22;19428;49.024;8.366;2023-08-06T08:34:58;14.90;99.90
33067;DHT22;19428;49.024;8.366;2023-08-06T08:37:24;14.90;99.90
33067;DHT22;19428;49.024;8.366;2023-08-06T08:39:49;14.90;99.90
33067;DHT22;19428;49.024;8.366;2023-08-06T08:42:16;14.90;99.90
33067;DHT22;19428;49.024;8.366;2023-08-06T08:44:42;15.00;99.90
33067;DHT22;19428;49.024;8.366;2023-08-06T08:47:09;15.00;99.90
33067;DHT22;19428;49.024;8.366;2023-08-06T08:49:36;15.00;99.90
33067;DHT22;19428;49.024;8.366;2023-08-06T08:52:03;15.10;99.90
33067;DHT22;19428;49.024;8.366;2023-08-06T08:54:32;15.30;99.90
33067;DHT22;19428;49.024;8.366;2023-08-06T08:56:59;15.30;99.90
33067;DHT22;19428;49.024;8.366;2023-08-06T08:59:24;15.50;99.90
33067;DHT22;19428;49.024;8.366;2023-08-06T09:01:51;15.40;99.90
33067;DHT22;19428;49.024;8.366;2023-08-06T09:04:18;15.40;99.90
33067;DHT22;19428;49.024;8.366;2023-08-06T09:06:46;15.40;99.90
33067;DHT22;19428;49.024;8.366;2023-08-06T09:09:16;15.30;99.90
33067;DHT22;19428;49.024;8.366;2023-08-06T09:11:45;15.40;99.90
33067;DHT22;19428;49.024;8.366;2023-08-06T09:14:14;15.40;99.90
33067;DHT22;19428;49.024;8.366;2023-08-06T09:16:40;15.50;99.90
33067;DHT22;19428;49.024;8.366;2023-08-06T09:19:13;15.70;99.90
33067;DHT22;19428;49.024;8.366;2023-08-06T09:21:41;15.70;99.90
33067;DHT22;19428;49.024;8.366;2023-08-06T09:24:13;15.90;99.90
33067;DHT22;19428;49.024;8.366;2023-08-06T09:26:40;16.00;99.90
33067;DHT22;19428;49.024;8.366;2023-08-06T09:29:08;15.90;99.90
33067;DHT22;19428;49.024;8.366;2023-08-06T09:31:43;15.90;99.90
33067;DHT22;19428;49.024;8.366;2023-08-06T09:34:20;15.80;99.90
33067;DHT22;19428;49.024;8.366;2023-08-06T09:36:51;15.80;99.90
33067;DHT22;19428;49.024;8.366;2023-08-06T09:39:19;15.80;99.90
33067;DHT22;19428;49.024;8.366;2023-08-06T09:41:47;15.70;99.90
33067;DHT22;19428;49.024;8.366;2023-08-06T09:44:20;15.70;99.90
33067;DHT22;19428;49.024;8.366;2023-08-06T09:46:52;15.60;99.90
33067;DHT22;19428;49.024;8.366;2023-08-06T09:49:20;15.70;99.90
33067;DHT22;19428;49.024;8.366;2023-08-06T09:51:46;15.60;99.90
33067;DHT22;19428;49.024;8.366;2023-08-06T09:54:16;15.70;99.90
33067;DHT22;19428;49.024;8.366;2023-08-06T09:56:42;15.80;99.90
33067;DHT22;19428;49.024;8.366;2023-08-06T09:59:08;15.60;99.90
33067;DHT22;19428;49.024;8.366;2023-08-06T10:01:35;15.70;99.90
33067;DHT22;19428;49.024;8.366;2023-08-06T10:04:03;15.60;99.90
33067;DHT22;19428;49.024;8.366;2023-08-06T10:06:31;15.60;99.90
33067;DHT22;19428;49.024;8.366;2023-08-06T10:08:57;15.50;99.90
33067;DHT22;19428;49.024;8.366;2023-08-06T10:11:24;15.50;99.90
33067;DHT22;19428;49.024;8.366;2023-08-06T10:13:54;15.50;99.90
33067;DHT22;19428;49.024;8.366;2023-08-06T10:16:22;15.40;99.90
33067;DHT22;19428;49.024;8.366;2023-08-06T10:18:49;15.50;99.90
33067;DHT22;19428;49.024;8.366;2023-08-06T10:21:15;15.40;99.90
33067;DHT22;19428;49.024;8.366;2023-08-06T10:23:41;15.40;99.90
33067;DHT22;19428;49.024;8.366;2023-08-06T10:26:07;15.30;99.90
33067;DHT22;19428;49.024;8.366;2023-08-06T10:28:37;15.30;99.90
33067;DHT22;19428;49.024;8.366;2023-08-06T10:31:09;15.30;99.90
33067;DHT22;19428;49.024;8.366;2023-08-06T10:33:46;15.30;99.90
33067;DHT22;19428;49.024;8.366;2023-08-06T10:36:22;15.30;99.90
33067;DHT22;19428;49.024;8.366;2023-08-06T10:38:49;15.20;99.90
33067;DHT22;19428;49.024;8.366;2023-08-06T10:41:23;15.40;99.90
33067;DHT22;19428;49.024;8.366;2023-08-06T10:43:49;15.40;99.90
33067;DHT22;19428;49.024;8.366;2023-08-06T10:46:43;15.40;99.90
33067;DHT22;19428;49.024;8.366;2023-08-06T10:49:08;15.40;99.90
33067;DHT22;19428;49.024;8.366;2023-08-06T10:51:35;15.40;99.90
33067;DHT22;19428;49.024;8.366;2023-08-06T10:54:02;15.40;99.90
33067;DHT22;19428;49.024;8.366;2023-08-06T10:56:28;15.40;99.90
33067;DHT22;19428;49.024;8.366;2023-08-06T10:58:55;15.30;99.90
33067;DHT22;19428;49.024;8.366;2023-08-06T11:01:22;15.30;99.90
33067;DHT22;19428;49.024;8.366;2023-08-06T11:03:50;15.30;99.90
33067;DHT22;19428;49.024;8.366;2023-08-06T11:06:22;15.20;99.90
33067;DHT22;19428;49.024;8.366;2023-08-06T11:08:51;15.20;99.90
33067;DHT22;19428;49.024;8.366;2023-08-06T11:11:17;15.20;99.90
33067;DHT22;19428;49.024;8.366;2023-08-06T11:13:48;15.30;99.90
33067;DHT22;19428;49.024;8.366;2023-08-06T11:16:18;15.20;99.90
33067;DHT22;19428;49.024;8.366;2023-08-06T11:18:44;15.30;99.90
33067;DHT22;19428;49.024;8.366;2023-08-06T11:21:11;15.30;99.90
33067;DHT22;19428;49.024;8.366;2023-08-06T11:23:40;15.30;99.90
33067;DHT22;19428;49.024;8.366;2023-08-06T11:26:06;15.40;99.90
33067;DHT22;19428;49.024;8.366;2023-08-06T11:28:31;15.40;99.90
33067;DHT22;19428;49.024;8.366;2023-08-06T11:30:58;15.40;99.90
33067;DHT22;19428;49.024;8.366;2023-08-06T11:33:26;15.50;99.90
33067;DHT22;19428;49.024;8.366;2023-08-06T11:35:54;15.50;99.90
33067;DHT22;19428;49.024;8.366;2023-08-06T11:38:21;15.50;99.90
33067;DHT22;19428;49.024;8.366;2023-08-06T11:40:51;15.60;99.90
33067;DHT22;19428;49.024;8.366;2023-08-06T11:43:18;15.70;99.90
33067;DHT22;19428;49.024;8.366;2023-08-06T11:45:44;15.70;99.90
33067;DHT22;19428;49.024;8.366;2023-08-06T11:48:10;15.70;99.90
33067;DHT22;19428;49.024;8.366;2023-08-06T11:50:39;15.70;99.90
33067;DHT22;19428;49.024;8.366;2023-08-06T11:53:04;15.80;99.90
33067;DHT22;19428;49.024;8.366;2023-08-06T11:55:30;15.90;99.90
33067;DHT22;19428;49.024;8.366;2023-08-06T11:57:56;15.90;99.90
33067;DHT22;19428;49.024;8.366;2023-08-06T12:00:24;15.90;99.90
33067;DHT22;19428;49.024;8.366;2023-08-06T12:02:50;15.90;99.90
33067;DHT22;19428;49.024;8.366;2023-08-06T12:05:22;15.80;99.90
33067;DHT22;19428;49.024;8.366;2023-08-06T12:07:52;15.90;99.90
33067;DHT22;19428;49.024;8.366;2023-08-06T12:10:19;15.90;99.90
33067;DHT22;19428;49.024;8.366;2023-08-06T12:12:46;15.90;99.90
33067;DHT22;19428;49.024;8.366;2023-08-06T12:15:11;15.90;99.90
33067;DHT22;19428;49.024;8.366;2023-08-06T12:17:37;15.90;99.90
33067;DHT22;19428;49.024;8.366;2023-08-06T12:20:05;15.90;99.90
33067;DHT22;19428;49.024;8.366;2023-08-06T12:22:31;15.80;99.90
33067;DHT22;19428;49.024;8.366;2023-08-06T12:25:05;15.90;99.90
33067;DHT22;19428;49.024;8.366;2023-08-06T12:27:44;15.90;99.90
33067;DHT22;19428;49.024;8.366;2023-08-06T12:30:11;16.00;99.90
33067;DHT22;19428;49.024;8.366;2023-08-06T12:32:37;16.10;99.90
33067;DHT22;19428;49.024;8.366;2023-08-06T12:35:03;16.10;99.90
33067;DHT22;19428;49.024;8.366;2023-08-06T12:37:30;16.20;99.90
33067;DHT22;19428;49.024;8.366;2023-08-06T12:39:55;16.20;99.90
33067;DHT22;19428;49.024;8.366;2023-08-06T12:42:21;16.20;99.90
33067;DHT22;19428;49.024;8.366;2023-08-06T12:44:48;16.30;99.90
33067;DHT22;19428;49.024;8.366;2023-08-06T12:47:15;16.40;99.90
33067;DHT22;19428;49.024;8.366;2023-08-06T12:49:40;16.50;99.90
33067;DHT22;19428;49.024;8.366;2023-08-06T12:52:06;16.40;99.90
33067;DHT22;19428;49.024;8.366;2023-08-06T12:54:33;16.30;99.90
33067;DHT22;19428;49.024;8.366;2023-08-06T12:57:02;16.40;99.90
33067;DHT22;19428;49.024;8.366;2023-08-06T12:59:28;16.60;99.90
33067;DHT22;19428;49.024;8.366;2023-08-06T13:01:54;16.70;99.90
33067;DHT22;19428;49.024;8.366;2023-08-06T13:04:19;16.80;99.90
33067;DHT22;19428;49.024;8.366;2023-08-06T13:06:45;16.80;99.90
33067;DHT22;19428;49.024;8.366;2023-08-06T13:09:10;17.00;99.90
33067;DHT22;19428;49.024;8.366;2023-08-06T13:11:37;17.00;99.90
33067;DHT22;19428;49.024;8.366;2023-08-06T13:14:11;16.90;99.90
33067;DHT22;19428;49.024;8.366;2023-08-06T13:16:40;17.10;99.90
33067;DHT22;19428;49.024;8.366;2023-08-06T13:19:07;17.10;99.90
33067;DHT22;19428;49.024;8.366;2023-08-06T13:24:05;17.20;99.90
33067;DHT22;19428;49.024;8.366;2023-08-06T13:26:31;17.20;99.90
33067;DHT22;19428;49.024;8.366;2023-08-06T13:29:00;17.10;99.90
33067;DHT22;19428;49.024;8.366;2023-08-06T13:31:27;17.00;99.90
33067;DHT22;19428;49.024;8.366;2023-08-06T13:33:57;17.20;99.90
33067;DHT22;19428;49.024;8.366;2023-08-06T13:36:29;17.40;99.90
33067;DHT22;19428;49.024;8.366;2023-08-06T13:38:55;17.40;99.90
33067;DHT22;19428;49.024;8.366;2023-08-06T13:41:21;17.50;99.90
33067;DHT22;19428;49.024;8.366;2023-08-06T13:43:47;17.60;99.90
33067;DHT22;19428;49.024;8.366;2023-08-06T13:46:13;17.60;99.90
33067;DHT22;19428;49.024;8.366;2023-08-06T13:48:44;17.50;99.90
33067;DHT22;19428;49.024;8.366;2023-08-06T13:51:11;17.60;99.90
33067;DHT22;19428;49.024;8.366;2023-08-06T13:53:38;17.50;99.90
33067;DHT22;19428;49.024;8.366;2023-08-06T13:56:05;17.50;99.90
33067;DHT22;19428;49.024;8.366;2023-08-06T13:58:33;17.50;99.90
33067;DHT22;19428;49.024;8.366;2023-08-06T14:00:59;17.50;99.90
33067;DHT22;19428;49.024;8.366;2023-08-06T14:03:24;17.50;99.90
33067;DHT22;19428;49.024;8.366;2023-08-06T14:05:50;17.70;99.90
33067;DHT22;19428;49.024;8.366;2023-08-06T14:08:17;17.80;99.90
33067;DHT22;19428;49.024;8.366;2023-08-06T14:10:47;17.90;97.80
33067;DHT22;19428;49.024;8.366;2023-08-06T14:13:13;18.00;94.80
33067;DHT22;19428;49.024;8.366;2023-08-06T14:15:38;18.20;94.00
33067;DHT22;19428;49.024;8.366;2023-08-06T14:18:07;18.10;90.40
33067;DHT22;19428;49.024;8.366;2023-08-06T14:20:36;18.00;91.70
33067;DHT22;19428;49.024;8.366;2023-08-06T14:23:01;18.20;91.50
33067;DHT22;19428;49.024;8.366;2023-08-06T14:25:27;18.30;91.70
33067;DHT22;19428;49.024;8.366;2023-08-06T14:27:53;18.40;92.60
33067;DHT22;19428;49.024;8.366;2023-08-06T14:30:18;18.10;95.90
33067;DHT22;19428;49.024;8.366;2023-08-06T14:32:44;17.80;99.90
33067;DHT22;19428;49.024;8.366;2023-08-06T14:35:10;17.70;99.90
33067;DHT22;19428;49.024;8.366;2023-08-06T14:37:35;17.60;99.90
33067;DHT22;19428;49.024;8.366;2023-08-06T14:40:01;17.60;99.90
33067;DHT22;19428;49.024;8.366;2023-08-06T14:42:27;17.70;99.90
33067;DHT22;19428;49.024;8.366;2023-08-06T14:44:52;17.70;99.90
33067;DHT22;19428;49.024;8.366;2023-08-06T14:47:18;17.70;99.90
33067;DHT22;19428;49.024;8.366;2023-08-06T14:49:44;17.70;99.90
33067;DHT22;19428;49.024;8.366;2023-08-06T14:52:10;17.80;99.90
33067;DHT22;19428;49.024;8.366;2023-08-06T14:54:35;18.00;99.10
33067;DHT22;19428;49.024;8.366;2023-08-06T14:57:01;18.10;94.80
33067;DHT22;19428;49.024;8.366;2023-08-06T14:59:27;18.00;92.60
33067;DHT22;19428;49.024;8.366;2023-08-06T15:01:52;18.20;93.20
33067;DHT22;19428;49.024;8.366;2023-08-06T15:04:18;18.00;92.70
33067;DHT22;19428;49.024;8.366;2023-08-06T15:06:44;17.80;94.50
33067;DHT22;19428;49.024;8.366;2023-08-06T15:09:11;17.80;95.10
33067;DHT22;19428;49.024;8.366;2023-08-06T15:11:37;17.90;96.70
33067;DHT22;19428;49.024;8.366;2023-08-06T15:14:02;17.90;98.80
33067;DHT22;19428;49.024;8.366;2023-08-06T15:16:30;17.90;99.30
33067;DHT22;19428;49.024;8.366;2023-08-06T15:18:56;17.90;98.10
33067;DHT22;19428;49.024;8.366;2023-08-06T15:21:21;17.80;98.60
33067;DHT22;19428;49.024;8.366;2023-08-06T15:23:47;17.70;99.00
33067;DHT22;19428;49.024;8.366;2023-08-06T15:26:12;17.60;99.90
33067;DHT22;19428;49.024;8.366;2023-08-06T15:28:38;17.60;99.90
33067;DHT22;19428;49.024;8.366;2023-08-06T15:31:04;17.50;99.90
33067;DHT22;19428;49.024;8.366;2023-08-06T15:33:31;17.30;99.90
33067;DHT22;19428;49.024;8.366;2023-08-06T15:35:56;17.20;99.90